sensor_id;sensor_type;location;lat;lon;timestamp;temperature;humidity
17944;DHT22;9097;47.028;15.444;2023-03-09T02:01:52;5.70;99.90
17944;DHT22;9097;47.028;15.444;2023-03-09T02:04:58;5.80;99.90
17944;DHT22;9097;47.028;15.444;2023-03-09T02:08:02;5.70;99.90
17944;DHT22;9097;47.028;15.444;2023-03-09T02:32:38;5.50;99.90
17944;DHT22;9097;47.028;15.444;2023-03-09T02:35:41;5.50;99.90
17944;DHT22;9097;47.028;15.444;2023-03-09T02:38:43;5.50;99.90
17944;DHT22;9097;47.028;15.444;2023-03-09T02:41:45;5.60;99.90
17944;DHT22;9097;47.028;15.444;2023-03-09T02:44:49;5.60;99.90
17944;DHT22;9097;47.028;15.444;2023-03-09T02:47:52;5.70;99.90
17944;DHT22;9097;47.028;15.444;2023-03-09T02:50:56;5.60;99.90
17944;DHT22;9097;47.028;15.444;2023-03-09T02:53:58;5.70;99.90
17944;DHT22;9097;47.028;15.444;2023-03-09T02:57:01;5.80;99.90
17944;DHT22;9097;47.028;15.444;2023-03-09T03:00:07;5.90;99.90
17944;DHT22;9097;47.028;15.444;2023-03-09T03:03:10;5.90;99.90
17944;DHT22;9097;47.028;15.444;2023-03-09T03:06:12;6.00;99.90
17944;DHT22;9097;47.028;15.444;2023-03-09T03:09:14;6.00;99.90
17944;DHT22;9097;47.028;15.444;2023-03-09T03:12:16;6.00;99.90
17944;DHT22;9097;47.028;15.444;2023-03-09T03:15:21;6.10;99.90
17944;DHT22;9097;47.028;15.444;2023-03-09T03:18:23;6.10;99.90
17944;DHT22;9097;47.028;15.444;2023-03-09T03:21:26;6.10;99.90
17944;DHT22;9097;47.028;15.444;2023-03-09T03:24:28;6.00;99.90
17944;DHT22;9097;47.028;15.444;2023-03-09T03:27:31;6.00;99.90
17944;DHT22;9097;47.028;15.444;2023-03-09T03:30:35;6.00;99.90
17944;DHT22;9097;47.028;15.444;2023-03-09T03:33:37;6.00;99.90
17944;DHT22;9097;47.028;15.444;2023-03-09T03:36:41;6.10;99.90
17944;DHT22;9097;47.028;15.444;2023-03-09T03:39:43;6.20;99.90
17944;DHT22;9097;47.028;15.444;2023-03-09T03:42:46;6.10;99.90
17944;DHT22;9097;47.028;15.444;2023-03-09T03:45:49;6.20;99.90
17944;DHT22;9097;47.028;15.444;2023-03-09T03:48:52;6.10;99.90
17944;DHT22;9097;47.028;15.444;2023-03-09T03:51:54;6.20;99.90
17944;DHT22;9097;47.028;15.444;2023-03-09T03:54:57;6.10;99.90
17944;DHT22;9097;47.028;15.444;2023-03-09T03:57:59;6.20;99.90
17944;DHT22;9097;47.028;15.444;2023-03-09T04:01:03;6.30;99.90
17944;DHT22;9097;47.028;15.444;2023-03-09T04:04:05;6.40;99.90
17944;DHT22;9097;47.028;15.444;2023-03-09T04:07:08;6.30;99.90
17944;DHT22;9097;47.028;15.444;2023-03-09T04:10:10;6.40;99.90
17944;DHT22;9097;47.028;15.444;2023-03-09T04:13:13;6.30;99.90
17944;DHT22;9097;47.028;15.444;2023-03-09T04:16:17;6.30;99.90
17944;DHT22;9097;47.028;15.444;2023-03-09T04:19:19;6.40;99.90
17944;DHT22;9097;47.028;15.444;2023-03-09T04:22:22;6.40;99.90
17944;DHT22;9097;47.028;15.444;2023-03-09T04:25:25;6.50;99.90
17944;DHT22;9097;47.028;15.444;2023-03-09T04:28:28;6.50;99.90
17944;DHT22;9097;47.028;15.444;2023-03-09T04:31:31;6.40;99.90
17944;DHT22;9097;47.028;15.444;2023-03-09T04:34:34;6.50;99.90
17944;DHT22;9097;47.028;15.444;2023-03-09T04:37:36;6.50;99.90
17944;DHT22;9097;47.028;15.444;2023-03-09T04:55:52;6.70;99.90
17944;DHT22;9097;47.028;15.444;2023-03-09T04:58:54;6.70;99.90
17944;DHT22;9097;47.028;15.444;2023-03-09T05:01:58;6.70;99.90
17944;DHT22;9097;47.028;15.444;2023-03-09T05:05:01;6.70;99.90
17944;DHT22;9097;47.028;15.444;2023-03-09T05:08:03;6.70;99.90
17944;DHT22;9097;47.028;15.444;2023-03-09T05:11:05;6.70;99.90
17944;DHT22;9097;47.028;15.444;2023-03-09T05:14:08;6.60;99.90
17944;DHT22;9097;47.028;15.444;2023-03-09T05:17:12;6.50;99.90
17944;DHT22;9097;47.028;15.444;2023-03-09T05:20:14;6.60;99.90
17944;DHT22;9097;47.028;15.444;2023-03-09T05:23:17;6.40;99.90
17944;DHT22;9097;47.028;15.444;2023-03-09T05:26:20;6.50;99.90
17944;DHT22;9097;47.028;15.444;2023-03-09T05:29:23;6.70;99.90
17944;DHT22;9097;47.028;15.444;2023-03-09T05:32:26;6.70;99.90
17944;DHT22;9097;47.028;15.444;2023-03-09T05:35:29;7.00;99.90
17944;DHT22;9097;47.028;15.444;2023-03-09T05:38:32;6.60;99.90
17944;DHT22;9097;47.028;15.444;2023-03-09T05:41:34;6.80;99.90
17944;DHT22;9097;47.028;15.444;2023-03-09T05:44:36;6.90;99.90
17944;DHT22;9097;47.028;15.444;2023-03-09T05:47:40;6.70;99.90
17944;DHT22;9097;47.028;15.444;2023-03-09T05:50:42;6.90;99.90
17944;DHT22;9097;47.028;15.444;2023-03-09T05:53:45;6.70;99.90
17944;DHT22;9097;47.028;15.444;2023-03-09T05:56:47;6.80;99.90
17944;DHT22;9097;47.028;15.444;2023-03-09T05:59:50;6.70;99.90
17944;DHT22;9097;47.028;15.444;2023-03-09T06:02:53;6.90;99.90
17944;DHT22;9097;47.028;15.444;2023-03-09T06:06:00;6.90;99.90
17944;DHT22;9097;47.028;15.444;2023-03-09T06:09:03;6.60;99.90
17944;DHT22;9097;47.028;15.444;2023-03-09T06:12:06;6.70;99.90
17944;DHT22;9097;47.028;15.444;2023-03-09T06:15:09;6.80;99.90
17944;DHT22;9097;47.028;15.444;2023-03-09T06:18:13;6.80;99.90
17944;DHT22;9097;47.028;15.444;2023-03-09T06:21:16;6.90;99.90
17944;DHT22;9097;47.028;15.444;2023-03-09T06:24:18;6.90;99.90
17944;DHT22;9097;47.028;15.444;2023-03-09T06:27:21;6.90;99.90
17944;DHT22;9097;47.028;15.444;2023-03-09T06:30:23;7.10;99.90
17944;DHT22;9097;47.028;15.444;2023-03-09T06:33:28;7.40;99.90
17944;DHT22;9097;47.028;15.444;2023-03-09T06:39:36;7.60;99.90
17944;DHT22;9097;47.028;15.444;2023-03-09T06:42:38;7.90;99.90
17944;DHT22;9097;47.028;15.444;2023-03-09T06:45:44;8.10;99.90
17944;DHT22;9097;47.028;15.444;2023-03-09T07:16:21;9.50;99.90
17944;DHT22;9097;47.028;15.444;2023-03-09T07:40:47;12.60;99.90
17944;DHT22;9097;47.028;15.444;2023-03-09T07:43:49;11.40;99.90
17944;DHT22;9097;47.028;15.444;2023-03-09T07:46:51;12.60;99.90
17944;DHT22;9097;47.028;15.444;2023-03-09T07:49:55;11.70;99.90
17944;DHT22;9097;47.028;15.444;2023-03-09T07:53:00;11.80;99.90
17944;DHT22;9097;47.028;15.444;2023-03-09T07:59:06;12.00;99.90
17944;DHT22;9097;47.028;15.444;2023-03-09T08:08:17;12.20;99.90
17944;DHT22;9097;47.028;15.444;2023-03-09T08:17:28;12.50;99.90
17944;DHT22;9097;47.028;15.444;2023-03-09T08:20:32;13.00;99.90
17944;DHT22;9097;47.028;15.444;2023-03-09T08:23:35;13.20;99.90
17944;DHT22;9097;47.028;15.444;2023-03-09T09:00:15;13.20;99.90
17944;DHT22;9097;47.028;15.444;2023-03-09T09:03:18;16.50;99.90
17944;DHT22;9097;47.028;15.444;2023-03-09T10:23:35;25.40;70.70
17944;DHT22;9097;47.028;15.444;2023-03-09T10:57:54;18.00;99.10
17944;DHT22;9097;47.028;15.444;2023-03-09T11:01:00;17.90;99.40
17944;DHT22;9097;47.028;15.444;2023-03-09T11:04:28;18.30;99.80
17944;DHT22;9097;47.028;15.444;2023-03-09T11:13:41;18.60;99.90
17944;DHT22;9097;47.028;15.444;2023-03-09T11:16:49;18.30;99.90
17944;DHT22;9097;47.028;15.444;2023-03-09T11:23:20;17.90;99.90
17944;DHT22;9097;47.028;15.444;2023-03-09T14:04:49;18.70;71.30
17944;DHT22;9097;47.028;15.444;2023-03-09T14:07:54;18.30;71.50
17944;DHT22;9097;47.028;15.444;2023-03-09T14:11:03;18.20;71.50
17944;DHT22;9097;47.028;15.444;2023-03-09T14:20:23;17.90;73.60
17944;DHT22;9097;47.028;15.444;2023-03-09T14:23:36;17.90;74.50
17944;DHT22;9097;47.028;15.444;2023-03-09T14:26:38;17.80;74.10
17944;DHT22;9097;47.028;15.444;2023-03-09T16:32:27;15.70;77.00
17944;DHT22;9097;47.028;15.444;2023-03-09T16:35:29;15.60;77.80
17944;DHT22;9097;47.028;15.444;2023-03-09T17:15:09;14.10;89.40
17944;DHT22;9097;47.028;15.444;2023-03-09T17:18:11;14.00;91.20
17944;DHT22;9097;47.028;15.444;2023-03-09T17:21:15;13.90;94.90
17944;DHT22;9097;47.028;15.444;2023-03-09T17:24:19;13.90;99.60
17944;DHT22;9097;47.028;15.444;2023-03-09T17:27:21;13.70;97.80
17944;DHT22;9097;47.028;15.444;2023-03-09T18:56:14;11.60;99.90
17944;DHT22;9097;47.028;15.444;2023-03-09T23:34:16;6.60;99.90
17944;DHT22;9097;47.028;15.444;2023-03-09T23:37:18;6.60;99.90
17944;DHT22;9097;47.028;15.444;2023-03-09T23:40:21;6.60;99.90
17944;DHT22;9097;47.028;15.444;2023-03-09T23:43:23;6.60;99.90
17944;DHT22;9097;47.028;15.444;2023-03-09T23:46:27;6.70;99.90
17944;DHT22;9097;47.028;15.444;2023-03-09T23:49:29;6.70;99.90
17944;DHT22;9097;47.028;15.444;2023-03-09T23:52:32;6.80;99.90
17944;DHT22;9097;47.028;15.444;2023-03-09T23:55:39;6.70;99.90
17944;DHT22;9097;47.028;15.444;2023-03-09T23:58:44;6.80;99.90
